PWSweather.com
Personal Weather Stations
Station Observations
270882
Flassian, LimouxFR 11300

FlassianLimouxFR 11300

Lat: 43.071798, Lon: 2.217292

Elevation: 165

Station Type: Oregon WMR 200

http://www.meteolimoux.fr

High Low Average
Temperature 70.2°F21.2°C 56.8°F13.8°C 60.3°F15.7°C
Dew Point 55.9°F13.3°C 48.7°F9.3°C 53.2°F11.8°C
Winds 8.5 mph 13.7 kmh Calm Calm 2.0 mph SE3.2 kmh SE
Wind Gusts 17.2 mph27.7 kmh -- 4.0 mph6.4 kmh
Humidity 90% 47% 78%
Pressure 29.99 in1015.6 mb 29.78 in1008.5 mb -
Precipitation 0.05 in1.3 mm - -
Hour Temp Dew Point Humidity Winds Wind Gusts Pressure Precip Precip Rate Daily Precip Total
12:02 AM 70.2°F21.2°C 48.9°F9.4°C 47% 8.5 mph SE13.7 kmh SE 15.0 mph24.1 kmh 29.78 in1008.5 mb - 0.00 in0.0 mm 0.00 in0.0 mm
12:07 AM 70.0°F21.1°C 48.9°F9.4°C 47% 8.1 mph SE13.0 kmh SE 17.2 mph27.7 kmh 29.81 in1009.5 mb - 0.00 in0.0 mm 0.00 in0.0 mm
12:12 AM 70.0°F21.1°C 48.9°F9.4°C 47% 7.8 mph SSW12.6 kmh SSW 15.7 mph25.3 kmh 29.81 in1009.5 mb - 0.00 in0.0 mm 0.00 in0.0 mm
12:17 AM 69.8°F21.0°C 48.7°F9.3°C 47% 8.5 mph SSE13.7 kmh SSE 16.8 mph27.0 kmh 29.81 in1009.5 mb - 0.00 in0.0 mm 0.00 in0.0 mm
12:22 AM 69.4°F20.8°C 48.9°F9.4°C 48% 6.5 mph SE10.5 kmh SE 11.9 mph19.2 kmh 29.81 in1009.5 mb - 0.00 in0.0 mm 0.00 in0.0 mm
12:27 AM 69.3°F20.7°C 49.3°F9.6°C 49% 6.5 mph SE10.5 kmh SE 13.6 mph21.9 kmh 29.81 in1009.5 mb - 0.00 in0.0 mm 0.00 in0.0 mm
12:32 AM 69.1°F20.6°C 49.1°F9.5°C 49% 4.9 mph E7.9 kmh E 9.4 mph15.1 kmh 29.81 in1009.5 mb - 0.00 in0.0 mm 0.00 in0.0 mm
12:37 AM 68.7°F20.4°C 48.7°F9.3°C 49% 6.0 mph E9.7 kmh E 11.2 mph18.0 kmh 29.81 in1009.5 mb - 0.00 in0.0 mm 0.00 in0.0 mm
12:42 AM 68.2°F20.1°C 48.9°F9.4°C 50% 4.9 mph NE7.9 kmh NE 8.3 mph13.4 kmh 29.81 in1009.5 mb - 0.00 in0.0 mm 0.00 in0.0 mm
12:47 AM 67.8°F19.9°C 49.1°F9.5°C 51% 5.6 mph SE9.0 kmh SE 12.3 mph19.8 kmh 29.81 in1009.5 mb - 0.00 in0.0 mm 0.00 in0.0 mm
12:52 AM 67.6°F19.8°C 48.9°F9.4°C 51% 5.4 mph ENE8.7 kmh ENE 9.4 mph15.1 kmh 29.84 in1010.5 mb - 0.00 in0.0 mm 0.00 in0.0 mm
12:57 AM 67.5°F19.7°C 49.3°F9.6°C 52% 4.3 mph E6.9 kmh E 9.2 mph14.8 kmh 29.84 in1010.5 mb - 0.00 in0.0 mm 0.00 in0.0 mm
01:02 AM 67.3°F19.6°C 49.1°F9.5°C 52% 5.6 mph E9.0 kmh E 5.6 mph9.0 kmh 29.84 in1010.5 mb - 0.00 in0.0 mm 0.00 in0.0 mm
01:07 AM 67.3°F19.6°C 49.1°F9.5°C 52% 3.6 mph SE5.8 kmh SE 7.4 mph11.9 kmh 29.84 in1010.5 mb - 0.00 in0.0 mm 0.00 in0.0 mm
01:12 AM 67.3°F19.6°C 49.6°F9.8°C 53% 3.1 mph SE5.0 kmh SE 5.8 mph9.3 kmh 29.84 in1010.5 mb - 0.00 in0.0 mm 0.00 in0.0 mm
01:17 AM 67.5°F19.7°C 49.8°F9.9°C 53% 1.8 mph ESE2.9 kmh ESE 4.5 mph7.2 kmh 29.84 in1010.5 mb - 0.00 in0.0 mm 0.00 in0.0 mm
01:22 AM 67.6°F19.8°C 50.0°F10.0°C 53% 5.4 mph ESE8.7 kmh ESE 11.2 mph18.0 kmh 29.84 in1010.5 mb - 0.00 in0.0 mm 0.00 in0.0 mm
01:27 AM 67.6°F19.8°C 50.0°F10.0°C 53% 5.4 mph SE8.7 kmh SE 12.1 mph19.5 kmh 29.84 in1010.5 mb - 0.00 in0.0 mm 0.00 in0.0 mm
01:32 AM 67.8°F19.9°C 50.5°F10.3°C 54% 4.0 mph SE6.4 kmh SE 8.5 mph13.7 kmh 29.84 in1010.5 mb - 0.00 in0.0 mm 0.00 in0.0 mm
01:37 AM 67.8°F19.9°C 50.5°F10.3°C 54% 7.6 mph SE12.2 kmh SE 13.2 mph21.2 kmh 29.84 in1010.5 mb - 0.00 in0.0 mm 0.00 in0.0 mm
01:42 AM 67.8°F19.9°C 51.1°F10.6°C 55% 7.4 mph ESE11.9 kmh ESE 13.6 mph21.9 kmh 29.84 in1010.5 mb - 0.00 in0.0 mm 0.00 in0.0 mm
01:47 AM 67.6°F19.8°C 50.9°F10.5°C 55% 7.6 mph SE12.2 kmh SE 13.0 mph20.9 kmh 29.84 in1010.5 mb - 0.00 in0.0 mm 0.00 in0.0 mm
01:52 AM 67.3°F19.6°C 51.1°F10.6°C 56% 4.3 mph SSE6.9 kmh SSE 9.6 mph15.4 kmh 29.84 in1010.5 mb - 0.00 in0.0 mm 0.00 in0.0 mm
01:57 AM 67.1°F19.5°C 51.4°F10.8°C 57% 2.2 mph SE3.5 kmh SE 6.0 mph9.7 kmh 29.84 in1010.5 mb - 0.00 in0.0 mm 0.00 in0.0 mm
02:02 AM 66.9°F19.4°C 51.3°F10.7°C 57% 0.4 mph E0.6 kmh E 3.1 mph5.0 kmh 29.84 in1010.5 mb - 0.00 in0.0 mm 0.00 in0.0 mm
02:07 AM 66.4°F19.1°C 51.6°F10.9°C 59% 0.2 mph NNE0.3 kmh NNE 1.8 mph2.9 kmh 29.84 in1010.5 mb - 0.00 in0.0 mm 0.00 in0.0 mm
02:12 AM 65.8°F18.8°C 51.6°F10.9°C 60% 3.1 mph N5.0 kmh N 5.8 mph9.3 kmh 29.84 in1010.5 mb - 0.00 in0.0 mm 0.00 in0.0 mm
02:17 AM 65.7°F18.7°C 51.8°F11.0°C 61% 1.1 mph NNW1.8 kmh NNW 4.7 mph7.6 kmh 29.84 in1010.5 mb - 0.00 in0.0 mm 0.00 in0.0 mm
02:22 AM 65.8°F18.8°C 52.9°F11.6°C 63% 1.6 mph NNE2.6 kmh NNE 6.7 mph10.8 kmh 29.84 in1010.5 mb - 0.00 in0.0 mm 0.00 in0.0 mm
02:27 AM 65.8°F18.8°C 52.9°F11.6°C 63% 4.7 mph NE7.6 kmh NE 4.7 mph7.6 kmh 29.84 in1010.5 mb - 0.00 in0.0 mm 0.00 in0.0 mm
02:32 AM 65.7°F18.7°C 52.7°F11.5°C 63% 1.3 mph ENE2.1 kmh ENE 4.7 mph7.6 kmh 29.84 in1010.5 mb - 0.00 in0.0 mm 0.00 in0.0 mm
02:37 AM 64.8°F18.2°C 52.7°F11.5°C 65% 1.3 mph E2.1 kmh E 4.9 mph7.9 kmh 29.84 in1010.5 mb - 0.00 in0.0 mm 0.00 in0.0 mm
02:42 AM 63.1°F17.3°C 52.3°F11.3°C 68% 1.3 mph N2.1 kmh N 5.1 mph8.2 kmh 29.84 in1010.5 mb - 0.00 in0.0 mm 0.00 in0.0 mm
02:47 AM 62.2°F16.8°C 53.4°F11.9°C 73% 6.9 mph NW11.1 kmh NW 13.2 mph21.2 kmh 29.84 in1010.5 mb - 0.00 in0.0 mm 0.00 in0.0 mm
02:52 AM 61.5°F16.4°C 53.6°F12.0°C 75% 6.7 mph NW10.8 kmh NW 13.0 mph20.9 kmh 29.84 in1010.5 mb - 0.00 in0.0 mm 0.00 in0.0 mm
02:57 AM 61.2°F16.2°C 53.6°F12.0°C 76% 7.4 mph W11.9 kmh W 11.4 mph18.3 kmh 29.84 in1010.5 mb - 0.00 in0.0 mm 0.00 in0.0 mm
03:02 AM 61.0°F16.1°C 53.4°F11.9°C 76% 6.9 mph NW11.1 kmh NW 11.0 mph17.7 kmh 29.84 in1010.5 mb - 0.00 in0.0 mm 0.00 in0.0 mm
03:07 AM 60.6°F15.9°C 53.4°F11.9°C 77% 6.9 mph NW11.1 kmh NW 6.9 mph11.1 kmh 29.84 in1010.5 mb - 0.00 in0.0 mm 0.00 in0.0 mm
03:12 AM 60.4°F15.8°C 53.2°F11.8°C 77% 6.5 mph WNW10.5 kmh WNW 6.5 mph10.5 kmh 29.84 in1010.5 mb - 0.00 in0.0 mm 0.00 in0.0 mm
03:17 AM 60.1°F15.6°C 53.2°F11.8°C 78% 7.4 mph NW11.9 kmh NW 14.5 mph23.3 kmh 29.84 in1010.5 mb - 0.00 in0.0 mm 0.00 in0.0 mm
03:22 AM 59.9°F15.5°C 52.7°F11.5°C 77% 6.0 mph WNW9.7 kmh WNW 10.3 mph16.6 kmh 29.84 in1010.5 mb - 0.00 in0.0 mm 0.00 in0.0 mm
03:27 AM 59.7°F15.4°C 52.9°F11.6°C 78% 6.3 mph NW10.1 kmh NW 12.5 mph20.1 kmh 29.84 in1010.5 mb - 0.00 in0.0 mm 0.00 in0.0 mm
03:32 AM 59.7°F15.4°C 52.9°F11.6°C 78% 4.9 mph NW7.9 kmh NW 9.8 mph15.8 kmh 29.84 in1010.5 mb - 0.00 in0.0 mm 0.00 in0.0 mm
03:37 AM 59.5°F15.3°C 52.7°F11.5°C 78% 5.6 mph NW9.0 kmh NW 5.6 mph9.0 kmh 29.84 in1010.5 mb - 0.00 in0.0 mm 0.00 in0.0 mm
03:42 AM 59.5°F15.3°C 52.7°F11.5°C 78% 5.6 mph NW9.0 kmh NW 9.6 mph15.4 kmh 29.84 in1010.5 mb - 0.00 in0.0 mm 0.00 in0.0 mm
03:47 AM 59.5°F15.3°C 52.7°F11.5°C 78% 3.6 mph NNW5.8 kmh NNW 9.2 mph14.8 kmh 29.84 in1010.5 mb - 0.00 in0.0 mm 0.00 in0.0 mm
03:52 AM 59.5°F15.3°C 52.7°F11.5°C 78% 2.7 mph NW4.3 kmh NW 5.8 mph9.3 kmh 29.84 in1010.5 mb - 0.00 in0.0 mm 0.00 in0.0 mm
03:57 AM 59.4°F15.2°C 52.5°F11.4°C 78% 0.7 mph NW1.1 kmh NW 3.8 mph6.1 kmh 29.84 in1010.5 mb - 0.00 in0.0 mm 0.00 in0.0 mm
04:02 AM 59.2°F15.1°C 52.7°F11.5°C 79% 3.8 mph NW6.1 kmh NW 7.4 mph11.9 kmh 29.84 in1010.5 mb - 0.00 in0.0 mm 0.00 in0.0 mm
04:07 AM 59.0°F15.0°C 52.5°F11.4°C 79% 4.0 mph N6.4 kmh N 6.9 mph11.1 kmh 29.84 in1010.5 mb - 0.00 in0.0 mm 0.00 in0.0 mm
04:12 AM 59.0°F15.0°C 52.5°F11.4°C 79% 4.7 mph NNW7.6 kmh NNW 9.6 mph15.4 kmh 29.84 in1010.5 mb - 0.00 in0.0 mm 0.00 in0.0 mm
04:17 AM 58.8°F14.9°C 52.3°F11.3°C 79% 4.3 mph NW6.9 kmh NW 9.4 mph15.1 kmh 29.84 in1010.5 mb - 0.00 in0.0 mm 0.00 in0.0 mm
04:22 AM 59.0°F15.0°C 52.5°F11.4°C 79% 4.5 mph NW7.2 kmh NW 7.8 mph12.6 kmh 29.84 in1010.5 mb - 0.00 in0.0 mm 0.00 in0.0 mm
04:27 AM 58.8°F14.9°C 52.0°F11.1°C 78% 3.4 mph WNW5.5 kmh WNW 7.6 mph12.2 kmh 29.84 in1010.5 mb - 0.00 in0.0 mm 0.00 in0.0 mm
04:32 AM 59.0°F15.0°C 52.5°F11.4°C 79% 2.7 mph W4.3 kmh W 6.5 mph10.5 kmh 29.84 in1010.5 mb - 0.00 in0.0 mm 0.00 in0.0 mm
04:37 AM 59.0°F15.0°C 52.5°F11.4°C 79% 1.8 mph N2.9 kmh N 4.5 mph7.2 kmh 29.84 in1010.5 mb - 0.00 in0.0 mm 0.00 in0.0 mm
04:42 AM 59.0°F15.0°C 52.2°F11.2°C 78% 2.5 mph N4.0 kmh N 6.0 mph9.7 kmh 29.84 in1010.5 mb - 0.00 in0.0 mm 0.00 in0.0 mm
04:47 AM 59.0°F15.0°C 52.5°F11.4°C 79% 2.0 mph W3.2 kmh W 4.0 mph6.4 kmh 29.84 in1010.5 mb - 0.00 in0.0 mm 0.00 in0.0 mm
04:52 AM 59.0°F15.0°C 52.2°F11.2°C 78% 2.0 mph W3.2 kmh W 5.6 mph9.0 kmh 29.87 in1011.5 mb - 0.00 in0.0 mm 0.00 in0.0 mm
04:57 AM 59.0°F15.0°C 52.2°F11.2°C 78% 2.9 mph WNW4.7 kmh WNW 5.4 mph8.7 kmh 29.87 in1011.5 mb - 0.00 in0.0 mm 0.00 in0.0 mm
05:02 AM 59.0°F15.0°C 52.2°F11.2°C 78% 1.1 mph NNW1.8 kmh NNW 3.8 mph6.1 kmh 29.87 in1011.5 mb - 0.00 in0.0 mm 0.00 in0.0 mm
05:07 AM 59.0°F15.0°C 52.2°F11.2°C 78% 1.3 mph NW2.1 kmh NW 4.9 mph7.9 kmh 29.87 in1011.5 mb - 0.00 in0.0 mm 0.00 in0.0 mm
05:12 AM 59.0°F15.0°C 52.2°F11.2°C 78% 3.1 mph NW5.0 kmh NW 6.9 mph11.1 kmh 29.87 in1011.5 mb - 0.00 in0.0 mm 0.00 in0.0 mm
05:17 AM 59.0°F15.0°C 51.8°F11.0°C 77% 2.9 mph NW4.7 kmh NW 6.5 mph10.5 kmh 29.87 in1011.5 mb - 0.00 in0.0 mm 0.00 in0.0 mm
05:22 AM 59.0°F15.0°C 51.8°F11.0°C 77% 3.1 mph WNW5.0 kmh WNW 5.4 mph8.7 kmh 29.87 in1011.5 mb - 0.00 in0.0 mm 0.00 in0.0 mm
05:27 AM 59.0°F15.0°C 51.8°F11.0°C 77% 3.8 mph NW6.1 kmh NW 6.5 mph10.5 kmh 29.87 in1011.5 mb - 0.00 in0.0 mm 0.00 in0.0 mm
05:32 AM 59.0°F15.0°C 51.4°F10.8°C 76% 2.9 mph WNW4.7 kmh WNW 5.4 mph8.7 kmh 29.87 in1011.5 mb - 0.00 in0.0 mm 0.00 in0.0 mm
05:37 AM 58.8°F14.9°C 51.3°F10.7°C 76% 2.9 mph NW4.7 kmh NW 6.3 mph10.1 kmh 29.87 in1011.5 mb - 0.00 in0.0 mm 0.00 in0.0 mm
05:42 AM 58.8°F14.9°C 51.3°F10.7°C 76% 4.0 mph NW6.4 kmh NW 6.9 mph11.1 kmh 29.87 in1011.5 mb - 0.00 in0.0 mm 0.00 in0.0 mm
05:47 AM 58.8°F14.9°C 51.3°F10.7°C 76% 2.0 mph NNW3.2 kmh NNW 4.5 mph7.2 kmh 29.87 in1011.5 mb - 0.00 in0.0 mm 0.00 in0.0 mm
05:52 AM 58.8°F14.9°C 50.9°F10.5°C 75% 3.4 mph NW5.5 kmh NW 5.8 mph9.3 kmh 29.87 in1011.5 mb - 0.00 in0.0 mm 0.00 in0.0 mm
05:57 AM 58.8°F14.9°C 51.3°F10.7°C 76% 2.5 mph NW4.0 kmh NW 6.3 mph10.1 kmh 29.87 in1011.5 mb - 0.00 in0.0 mm 0.00 in0.0 mm
06:02 AM 58.6°F14.8°C 51.1°F10.6°C 76% 2.0 mph NW3.2 kmh NW 4.9 mph7.9 kmh 29.87 in1011.5 mb - 0.00 in0.0 mm 0.00 in0.0 mm
06:07 AM 58.5°F14.7°C 51.3°F10.7°C 77% 1.8 mph NNW2.9 kmh NNW 3.1 mph5.0 kmh 29.87 in1011.5 mb - 0.00 in0.0 mm 0.00 in0.0 mm
06:12 AM 58.3°F14.6°C 51.4°F10.8°C 78% 0.4 mph NW0.6 kmh NW 2.5 mph4.0 kmh 29.87 in1011.5 mb - 0.00 in0.0 mm 0.00 in0.0 mm
06:17 AM 57.9°F14.4°C 51.1°F10.6°C 78% 1.8 mph NW2.9 kmh NW 3.1 mph5.0 kmh 29.87 in1011.5 mb - 0.00 in0.0 mm 0.00 in0.0 mm
06:22 AM 57.7°F14.3°C 51.3°F10.7°C 79% 0.9 mph NW1.4 kmh NW 2.9 mph4.7 kmh 29.87 in1011.5 mb - 0.00 in0.0 mm 0.00 in0.0 mm
06:27 AM 57.7°F14.3°C 51.3°F10.7°C 79% 0.9 mph NW1.4 kmh NW 3.1 mph5.0 kmh 29.87 in1011.5 mb - 0.00 in0.0 mm 0.00 in0.0 mm
06:32 AM 57.6°F14.2°C 51.1°F10.6°C 79% 0.7 mph NNW1.1 kmh NNW 2.7 mph4.3 kmh 29.87 in1011.5 mb - 0.00 in0.0 mm 0.00 in0.0 mm
06:37 AM 57.4°F14.1°C 51.3°F10.7°C 80% 0.2 mph NW0.3 kmh NW 2.5 mph4.0 kmh 29.90 in1012.5 mb - 0.00 in0.0 mm 0.00 in0.0 mm
06:42 AM 57.4°F14.1°C 51.6°F10.9°C 81% 1.1 mph NW1.8 kmh NW 4.0 mph6.4 kmh 29.90 in1012.5 mb - 0.00 in0.0 mm 0.00 in0.0 mm
06:47 AM 57.2°F14.0°C 51.4°F10.8°C 81% 2.0 mph NW3.2 kmh NW 2.0 mph3.2 kmh 29.90 in1012.5 mb - 0.00 in0.0 mm 0.00 in0.0 mm
06:52 AM 57.2°F14.0°C 51.8°F11.0°C 82% 2.5 mph WNW4.0 kmh WNW 4.9 mph7.9 kmh 29.84 in1010.5 mb - 0.00 in0.0 mm 0.00 in0.0 mm
06:57 AM 57.2°F14.0°C 51.4°F10.8°C 81% 2.2 mph NW3.5 kmh NW 2.2 mph3.5 kmh 29.84 in1010.5 mb - 0.00 in0.0 mm 0.00 in0.0 mm
07:02 AM 57.0°F13.9°C 51.3°F10.7°C 81% 1.1 mph NW1.8 kmh NW 2.7 mph4.3 kmh 29.84 in1010.5 mb - 0.00 in0.0 mm 0.00 in0.0 mm
07:07 AM 57.0°F13.9°C 51.6°F10.9°C 82% 0.2 mph NW0.3 kmh NW 1.6 mph2.6 kmh 29.90 in1012.5 mb - 0.00 in0.0 mm 0.00 in0.0 mm
07:12 AM 57.0°F13.9°C 51.3°F10.7°C 81% Calm Calm -- 29.90 in1012.5 mb - 0.00 in0.0 mm 0.00 in0.0 mm
07:17 AM 56.8°F13.8°C 51.4°F10.8°C 82% Calm Calm -- 29.90 in1012.5 mb - 0.00 in0.0 mm 0.00 in0.0 mm
07:22 AM 56.8°F13.8°C 51.1°F10.6°C 81% 1.3 mph NW2.1 kmh NW 4.0 mph6.4 kmh 29.87 in1011.5 mb - 0.00 in0.0 mm 0.00 in0.0 mm
07:27 AM 57.0°F13.9°C 51.3°F10.7°C 81% 1.8 mph NNW2.9 kmh NNW 3.4 mph5.5 kmh 29.87 in1011.5 mb - 0.00 in0.0 mm 0.00 in0.0 mm
07:32 AM 57.0°F13.9°C 51.3°F10.7°C 81% 0.2 mph N0.3 kmh N 1.1 mph1.8 kmh 29.87 in1011.5 mb - 0.00 in0.0 mm 0.00 in0.0 mm
07:37 AM 57.0°F13.9°C 51.3°F10.7°C 81% 0.2 mph NW0.3 kmh NW 2.5 mph4.0 kmh 29.87 in1011.5 mb - 0.00 in0.0 mm 0.00 in0.0 mm
07:42 AM 57.0°F13.9°C 51.3°F10.7°C 81% 0.4 mph NNW0.6 kmh NNW 2.7 mph4.3 kmh 29.87 in1011.5 mb - 0.00 in0.0 mm 0.00 in0.0 mm
07:47 AM 57.0°F13.9°C 51.6°F10.9°C 82% Calm Calm -- 29.87 in1011.5 mb - 0.00 in0.0 mm 0.00 in0.0 mm
07:52 AM 57.0°F13.9°C 51.6°F10.9°C 82% Calm Calm -- 29.87 in1011.5 mb - 0.00 in0.0 mm 0.00 in0.0 mm
07:57 AM 57.0°F13.9°C 51.6°F10.9°C 82% Calm Calm -- 29.87 in1011.5 mb - 0.00 in0.0 mm 0.00 in0.0 mm
08:02 AM 57.0°F13.9°C 51.6°F10.9°C 82% Calm Calm -- 29.87 in1011.5 mb - 0.00 in0.0 mm 0.00 in0.0 mm
08:07 AM 57.2°F14.0°C 51.8°F11.0°C 82% Calm Calm -- 29.84 in1010.5 mb - 0.00 in0.0 mm 0.00 in0.0 mm
08:12 AM 57.2°F14.0°C 51.8°F11.0°C 82% Calm Calm -- 29.84 in1010.5 mb - 0.00 in0.0 mm 0.00 in0.0 mm
08:17 AM 57.2°F14.0°C 51.8°F11.0°C 82% Calm Calm -- 29.84 in1010.5 mb - 0.00 in0.0 mm 0.00 in0.0 mm
08:22 AM 57.2°F14.0°C 51.8°F11.0°C 82% Calm Calm -- 29.87 in1011.5 mb - 0.00 in0.0 mm 0.00 in0.0 mm
08:27 AM 57.2°F14.0°C 51.8°F11.0°C 82% Calm Calm -- 29.87 in1011.5 mb - 0.00 in0.0 mm 0.00 in0.0 mm
08:32 AM 57.2°F14.0°C 51.8°F11.0°C 82% Calm Calm -- 29.87 in1011.5 mb - 0.00 in0.0 mm 0.00 in0.0 mm
08:37 AM 57.2°F14.0°C 51.8°F11.0°C 82% Calm Calm -- 29.87 in1011.5 mb - 0.00 in0.0 mm 0.00 in0.0 mm
08:42 AM 57.2°F14.0°C 52.2°F11.2°C 83% Calm Calm -- 29.87 in1011.5 mb - 0.00 in0.0 mm 0.00 in0.0 mm
08:47 AM 57.4°F14.1°C 52.3°F11.3°C 83% Calm Calm -- 29.87 in1011.5 mb - 0.00 in0.0 mm 0.00 in0.0 mm
08:52 AM 57.4°F14.1°C 52.3°F11.3°C 83% Calm Calm -- 29.87 in1011.5 mb - 0.00 in0.0 mm 0.00 in0.0 mm
08:57 AM 57.4°F14.1°C 52.3°F11.3°C 83% Calm Calm -- 29.87 in1011.5 mb - 0.00 in0.0 mm 0.00 in0.0 mm
09:02 AM 57.4°F14.1°C 52.0°F11.1°C 82% Calm Calm -- 29.87 in1011.5 mb - 0.00 in0.0 mm 0.00 in0.0 mm
09:07 AM 57.4°F14.1°C 52.0°F11.1°C 82% Calm Calm -- 29.87 in1011.5 mb - 0.00 in0.0 mm 0.00 in0.0 mm
09:12 AM 57.6°F14.2°C 52.2°F11.2°C 82% Calm Calm -- 29.87 in1011.5 mb - 0.00 in0.0 mm 0.00 in0.0 mm
09:17 AM 57.6°F14.2°C 52.5°F11.4°C 83% Calm Calm -- 29.87 in1011.5 mb - 0.00 in0.0 mm 0.00 in0.0 mm
09:22 AM 57.7°F14.3°C 52.7°F11.5°C 83% Calm Calm -- 29.87 in1011.5 mb - 0.00 in0.0 mm 0.00 in0.0 mm
09:27 AM 57.7°F14.3°C 52.7°F11.5°C 83% Calm Calm -- 29.87 in1011.5 mb - 0.00 in0.0 mm 0.00 in0.0 mm
09:32 AM 57.7°F14.3°C 52.7°F11.5°C 83% Calm Calm -- 29.87 in1011.5 mb - 0.00 in0.0 mm 0.00 in0.0 mm
09:37 AM 57.9°F14.4°C 52.9°F11.6°C 83% Calm Calm -- 29.87 in1011.5 mb - 0.00 in0.0 mm 0.00 in0.0 mm
09:42 AM 58.1°F14.5°C 53.2°F11.8°C 84% Calm Calm -- 29.87 in1011.5 mb - 0.00 in0.0 mm 0.00 in0.0 mm
09:47 AM 58.3°F14.6°C 53.4°F11.9°C 84% 0.2 mph ENE0.3 kmh ENE 2.5 mph4.0 kmh 29.87 in1011.5 mb - 0.00 in0.0 mm 0.00 in0.0 mm
09:52 AM 58.1°F14.5°C 53.2°F11.8°C 84% 2.2 mph NE3.5 kmh NE 4.0 mph6.4 kmh 29.90 in1012.5 mb - 0.00 in0.0 mm 0.00 in0.0 mm
09:57 AM 58.3°F14.6°C 53.4°F11.9°C 84% 2.2 mph ESE3.5 kmh ESE 3.6 mph5.8 kmh 29.90 in1012.5 mb - 0.00 in0.0 mm 0.00 in0.0 mm
10:02 AM 58.3°F14.6°C 53.4°F11.9°C 84% 1.8 mph NE2.9 kmh NE 1.8 mph2.9 kmh 29.90 in1012.5 mb - 0.00 in0.0 mm 0.00 in0.0 mm
10:07 AM 58.1°F14.5°C 53.2°F11.8°C 84% 3.4 mph NNE5.5 kmh NNE 5.4 mph8.7 kmh 29.90 in1012.5 mb - 0.00 in0.0 mm 0.00 in0.0 mm
10:12 AM 58.3°F14.6°C 53.4°F11.9°C 84% 2.7 mph NE4.3 kmh NE 4.3 mph6.9 kmh 29.90 in1012.5 mb - 0.00 in0.0 mm 0.00 in0.0 mm
10:17 AM 58.3°F14.6°C 53.4°F11.9°C 84% 0.7 mph NE1.1 kmh NE 2.7 mph4.3 kmh 29.90 in1012.5 mb - 0.00 in0.0 mm 0.00 in0.0 mm
10:22 AM 58.5°F14.7°C 53.6°F12.0°C 84% Calm Calm -- 29.90 in1012.5 mb - 0.00 in0.0 mm 0.00 in0.0 mm
10:27 AM 58.5°F14.7°C 53.6°F12.0°C 84% Calm Calm -- 29.90 in1012.5 mb - 0.00 in0.0 mm 0.00 in0.0 mm
10:32 AM 58.5°F14.7°C 53.6°F12.0°C 84% 1.3 mph N2.1 kmh N 3.4 mph5.5 kmh 29.90 in1012.5 mb - 0.00 in0.0 mm 0.00 in0.0 mm
10:37 AM 58.5°F14.7°C 53.6°F12.0°C 84% 2.5 mph NE4.0 kmh NE 3.8 mph6.1 kmh 29.93 in1013.5 mb - 0.00 in0.0 mm 0.00 in0.0 mm
10:42 AM 58.3°F14.6°C 53.1°F11.7°C 83% 0.9 mph N1.4 kmh N 2.9 mph4.7 kmh 29.93 in1013.5 mb - 0.00 in0.0 mm 0.00 in0.0 mm
10:47 AM 58.5°F14.7°C 53.6°F12.0°C 84% Calm Calm -- 29.93 in1013.5 mb - 0.00 in0.0 mm 0.00 in0.0 mm
10:52 AM 58.8°F14.9°C 54.0°F12.2°C 84% Calm Calm -- 29.90 in1012.5 mb - 0.00 in0.0 mm 0.00 in0.0 mm
10:57 AM 59.0°F15.0°C 54.1°F12.3°C 84% 1.6 mph NNE2.6 kmh NNE 4.7 mph7.6 kmh 29.90 in1012.5 mb - 0.00 in0.0 mm 0.00 in0.0 mm
11:02 AM 59.2°F15.1°C 54.3°F12.4°C 84% 2.7 mph N4.3 kmh N 4.3 mph6.9 kmh 29.90 in1012.5 mb - 0.00 in0.0 mm 0.00 in0.0 mm
11:07 AM 59.2°F15.1°C 54.3°F12.4°C 84% 0.7 mph NNE1.1 kmh NNE 2.5 mph4.0 kmh 29.93 in1013.5 mb - 0.00 in0.0 mm 0.00 in0.0 mm
11:12 AM 59.2°F15.1°C 54.0°F12.2°C 83% Calm Calm -- 29.93 in1013.5 mb - 0.00 in0.0 mm 0.00 in0.0 mm
11:17 AM 59.2°F15.1°C 54.0°F12.2°C 83% Calm Calm -- 29.93 in1013.5 mb - 0.00 in0.0 mm 0.00 in0.0 mm
11:22 AM 59.4°F15.2°C 54.1°F12.3°C 83% 0.7 mph E1.1 kmh E 4.0 mph6.4 kmh 29.90 in1012.5 mb - 0.00 in0.0 mm 0.00 in0.0 mm
11:27 AM 59.4°F15.2°C 54.1°F12.3°C 83% 2.2 mph ESE3.5 kmh ESE 4.5 mph7.2 kmh 29.90 in1012.5 mb - 0.00 in0.0 mm 0.00 in0.0 mm
11:32 AM 59.4°F15.2°C 53.8°F12.1°C 82% 2.7 mph NE4.3 kmh NE 4.3 mph6.9 kmh 29.90 in1012.5 mb - 0.00 in0.0 mm 0.00 in0.0 mm
11:37 AM 59.2°F15.1°C 53.8°F12.1°C 82% 1.3 mph N2.1 kmh N 3.4 mph5.5 kmh 29.90 in1012.5 mb - 0.00 in0.0 mm 0.00 in0.0 mm
11:42 AM 59.2°F15.1°C 54.0°F12.2°C 83% 0.2 mph NE0.3 kmh NE 3.8 mph6.1 kmh 29.90 in1012.5 mb - 0.00 in0.0 mm 0.00 in0.0 mm
11:47 AM 59.2°F15.1°C 54.0°F12.2°C 83% 2.9 mph NE4.7 kmh NE 4.0 mph6.4 kmh 29.90 in1012.5 mb - 0.00 in0.0 mm 0.00 in0.0 mm
11:52 AM 59.0°F15.0°C 53.8°F12.1°C 83% 0.4 mph NE0.6 kmh NE 2.7 mph4.3 kmh 29.90 in1012.5 mb - 0.00 in0.0 mm 0.00 in0.0 mm
11:57 AM 59.4°F15.2°C 54.5°F12.5°C 84% 0.9 mph E1.4 kmh E 2.9 mph4.7 kmh 29.90 in1012.5 mb - 0.00 in0.0 mm 0.00 in0.0 mm
12:02 PM 59.7°F15.4°C 54.9°F12.7°C 84% 0.7 mph ENE1.1 kmh ENE 2.7 mph4.3 kmh 29.90 in1012.5 mb - 0.00 in0.0 mm 0.00 in0.0 mm
12:07 PM 59.9°F15.5°C 55.0°F12.8°C 84% 0.2 mph NE0.3 kmh NE 1.6 mph2.6 kmh 29.90 in1012.5 mb - 0.00 in0.0 mm 0.00 in0.0 mm
12:12 PM 60.1°F15.6°C 55.2°F12.9°C 84% 0.4 mph NE0.6 kmh NE 2.2 mph3.5 kmh 29.90 in1012.5 mb - 0.00 in0.0 mm 0.00 in0.0 mm
12:17 PM 60.3°F15.7°C 55.4°F13.0°C 84% Calm Calm 0.4 mph0.6 kmh 29.90 in1012.5 mb - 0.00 in0.0 mm 0.00 in0.0 mm
12:22 PM 60.3°F15.7°C 55.0°F12.8°C 83% 0.4 mph NE0.6 kmh NE 3.8 mph6.1 kmh 29.90 in1012.5 mb - 0.00 in0.0 mm 0.00 in0.0 mm
12:27 PM 60.3°F15.7°C 54.7°F12.6°C 82% 1.1 mph NNW1.8 kmh NNW 6.3 mph10.1 kmh 29.90 in1012.5 mb - 0.00 in0.0 mm 0.00 in0.0 mm
12:32 PM 60.4°F15.8°C 54.9°F12.7°C 82% 2.0 mph WNW3.2 kmh WNW 6.0 mph9.7 kmh 29.90 in1012.5 mb - 0.00 in0.0 mm 0.00 in0.0 mm
12:37 PM 60.4°F15.8°C 54.9°F12.7°C 82% 1.3 mph WNW2.1 kmh WNW 1.3 mph2.1 kmh 29.87 in1011.5 mb - 0.00 in0.0 mm 0.00 in0.0 mm
12:42 PM 60.6°F15.9°C 54.7°F12.6°C 81% 0.7 mph WNW1.1 kmh WNW 4.9 mph7.9 kmh 29.87 in1011.5 mb - 0.00 in0.0 mm 0.00 in0.0 mm
12:47 PM 60.8°F16.0°C 54.7°F12.6°C 80% 1.3 mph NW2.1 kmh NW 4.0 mph6.4 kmh 29.87 in1011.5 mb - 0.00 in0.0 mm 0.00 in0.0 mm
12:52 PM 61.0°F16.1°C 54.9°F12.7°C 80% Calm Calm -- 29.84 in1010.5 mb - 0.00 in0.0 mm 0.00 in0.0 mm
12:57 PM 61.0°F16.1°C 54.5°F12.5°C 79% 1.1 mph NW1.8 kmh NW 4.3 mph6.9 kmh 29.84 in1010.5 mb - 0.00 in0.0 mm 0.00 in0.0 mm
01:02 PM 61.3°F16.3°C 54.9°F12.7°C 79% 1.1 mph W1.8 kmh W 5.6 mph9.0 kmh 29.84 in1010.5 mb - 0.00 in0.0 mm 0.00 in0.0 mm
01:07 PM 61.5°F16.4°C 55.0°F12.8°C 79% 1.6 mph NW2.6 kmh NW 4.9 mph7.9 kmh 29.87 in1011.5 mb - 0.00 in0.0 mm 0.00 in0.0 mm
01:12 PM 61.9°F16.6°C 55.2°F12.9°C 79% 0.4 mph NNE0.6 kmh NNE 4.0 mph6.4 kmh 29.87 in1011.5 mb - 0.00 in0.0 mm 0.00 in0.0 mm
01:17 PM 62.1°F16.7°C 55.4°F13.0°C 79% 0.7 mph NNE1.1 kmh NNE 3.6 mph5.8 kmh 29.87 in1011.5 mb - 0.00 in0.0 mm 0.00 in0.0 mm
01:22 PM 62.1°F16.7°C 55.0°F12.8°C 78% 0.2 mph NNE0.3 kmh NNE 2.2 mph3.5 kmh 29.87 in1011.5 mb - 0.00 in0.0 mm 0.00 in0.0 mm
01:27 PM 62.1°F16.7°C 54.9°F12.7°C 77% Calm Calm -- 29.87 in1011.5 mb - 0.00 in0.0 mm 0.00 in0.0 mm
01:32 PM 62.1°F16.7°C 54.9°F12.7°C 77% 0.2 mph NW0.3 kmh NW 7.2 mph11.6 kmh 29.87 in1011.5 mb - 0.00 in0.0 mm 0.00 in0.0 mm
01:37 PM 62.2°F16.8°C 54.9°F12.7°C 77% 2.7 mph NW4.3 kmh NW 7.4 mph11.9 kmh 29.84 in1010.5 mb - 0.00 in0.0 mm 0.00 in0.0 mm
01:42 PM 63.0°F17.2°C 55.2°F12.9°C 76% 0.2 mph NW0.3 kmh NW 3.8 mph6.1 kmh 29.84 in1010.5 mb - 0.00 in0.0 mm 0.00 in0.0 mm
01:47 PM 63.5°F17.5°C 55.8°F13.2°C 76% Calm Calm -- 29.84 in1010.5 mb - 0.00 in0.0 mm 0.00 in0.0 mm
01:52 PM 63.7°F17.6°C 55.6°F13.1°C 75% Calm Calm -- 29.84 in1010.5 mb - 0.00 in0.0 mm 0.00 in0.0 mm
01:57 PM 64.0°F17.8°C 55.9°F13.3°C 75% 2.5 mph NNE4.0 kmh NNE 4.3 mph6.9 kmh 29.84 in1010.5 mb - 0.00 in0.0 mm 0.00 in0.0 mm
02:02 PM 64.0°F17.8°C 55.6°F13.1°C 74% 0.4 mph NE0.6 kmh NE 3.1 mph5.0 kmh 29.84 in1010.5 mb - 0.00 in0.0 mm 0.00 in0.0 mm
02:07 PM 63.5°F17.5°C 54.0°F12.2°C 71% 0.9 mph NW1.4 kmh NW 0.9 mph1.4 kmh 29.84 in1010.5 mb - 0.00 in0.0 mm 0.00 in0.0 mm
02:12 PM 63.3°F17.4°C 54.1°F12.3°C 72% 1.8 mph NW2.9 kmh NW 5.8 mph9.3 kmh 29.84 in1010.5 mb - 0.00 in0.0 mm 0.00 in0.0 mm
02:17 PM 63.3°F17.4°C 54.1°F12.3°C 72% 3.4 mph NW5.5 kmh NW 6.9 mph11.1 kmh 29.84 in1010.5 mb - 0.00 in0.0 mm 0.00 in0.0 mm
02:22 PM 63.3°F17.4°C 54.5°F12.5°C 73% 2.7 mph NW4.3 kmh NW 5.4 mph8.7 kmh 29.87 in1011.5 mb - 0.00 in0.0 mm 0.00 in0.0 mm
02:27 PM 63.7°F17.6°C 54.9°F12.7°C 73% 2.0 mph W3.2 kmh W 5.8 mph9.3 kmh 29.87 in1011.5 mb - 0.00 in0.0 mm 0.00 in0.0 mm
02:32 PM 63.9°F17.7°C 55.0°F12.8°C 73% Calm Calm -- 29.87 in1011.5 mb - 0.00 in0.0 mm 0.00 in0.0 mm
02:37 PM 63.9°F17.7°C 55.0°F12.8°C 73% Calm Calm -- 29.87 in1011.5 mb - 0.00 in0.0 mm 0.00 in0.0 mm
02:42 PM 63.7°F17.6°C 54.5°F12.5°C 72% Calm Calm -- 29.87 in1011.5 mb - 0.00 in0.0 mm 0.00 in0.0 mm
02:47 PM 63.5°F17.5°C 54.3°F12.4°C 72% 2.5 mph WNW4.0 kmh WNW 6.0 mph9.7 kmh 29.87 in1011.5 mb - 0.00 in0.0 mm 0.00 in0.0 mm
02:52 PM 63.5°F17.5°C 54.7°F12.6°C 73% Calm Calm -- 29.90 in1012.5 mb - 0.00 in0.0 mm 0.00 in0.0 mm
02:57 PM 63.5°F17.5°C 54.7°F12.6°C 73% 0.7 mph N1.1 kmh N 4.9 mph7.9 kmh 29.90 in1012.5 mb - 0.00 in0.0 mm 0.00 in0.0 mm
03:02 PM 63.9°F17.7°C 54.7°F12.6°C 72% 4.0 mph NNW6.4 kmh NNW 6.5 mph10.5 kmh 29.90 in1012.5 mb - 0.00 in0.0 mm 0.00 in0.0 mm
03:07 PM 63.7°F17.6°C 54.5°F12.5°C 72% 3.1 mph NW5.0 kmh NW 3.1 mph5.0 kmh 29.87 in1011.5 mb - 0.00 in0.0 mm 0.00 in0.0 mm
03:12 PM 63.3°F17.4°C 54.1°F12.3°C 72% 4.7 mph WNW7.6 kmh WNW 8.1 mph13.0 kmh 29.87 in1011.5 mb - 0.00 in0.0 mm 0.00 in0.0 mm
03:17 PM 63.1°F17.3°C 54.0°F12.2°C 72% 3.8 mph NW6.1 kmh NW 7.4 mph11.9 kmh 29.87 in1011.5 mb - 0.00 in0.0 mm 0.00 in0.0 mm
03:22 PM 63.0°F17.2°C 53.8°F12.1°C 72% 4.5 mph WNW7.2 kmh WNW 8.3 mph13.4 kmh 29.87 in1011.5 mb - 0.00 in0.0 mm 0.00 in0.0 mm
03:27 PM 62.6°F17.0°C 53.4°F11.9°C 72% 4.5 mph W7.2 kmh W 7.6 mph12.2 kmh 29.87 in1011.5 mb - 0.00 in0.0 mm 0.00 in0.0 mm
03:32 PM 62.6°F17.0°C 53.4°F11.9°C 72% 4.0 mph WNW6.4 kmh WNW 9.6 mph15.4 kmh 29.87 in1011.5 mb - 0.00 in0.0 mm 0.00 in0.0 mm
03:37 PM 62.4°F16.9°C 53.6°F12.0°C 73% 4.9 mph WNW7.9 kmh WNW 9.4 mph15.1 kmh 29.87 in1011.5 mb - 0.00 in0.0 mm 0.00 in0.0 mm
03:42 PM 62.4°F16.9°C 53.6°F12.0°C 73% 4.3 mph WNW6.9 kmh WNW 8.9 mph14.3 kmh 29.87 in1011.5 mb - 0.00 in0.0 mm 0.00 in0.0 mm
03:47 PM 62.2°F16.8°C 53.4°F11.9°C 73% 4.3 mph NW6.9 kmh NW 8.3 mph13.4 kmh 29.87 in1011.5 mb - 0.00 in0.0 mm 0.00 in0.0 mm
03:52 PM 62.2°F16.8°C 53.4°F11.9°C 73% 2.9 mph NW4.7 kmh NW 6.7 mph10.8 kmh 29.87 in1011.5 mb - 0.00 in0.0 mm 0.00 in0.0 mm
03:57 PM 62.2°F16.8°C 53.4°F11.9°C 73% 5.8 mph NW9.3 kmh NW 10.1 mph16.3 kmh 29.87 in1011.5 mb - 0.00 in0.0 mm 0.00 in0.0 mm
04:02 PM 62.2°F16.8°C 53.8°F12.1°C 74% 3.4 mph NW5.5 kmh NW 7.4 mph11.9 kmh 29.87 in1011.5 mb - 0.00 in0.0 mm 0.00 in0.0 mm
04:07 PM 62.4°F16.9°C 54.0°F12.2°C 74% 4.3 mph NW6.9 kmh NW 8.5 mph13.7 kmh 29.87 in1011.5 mb - 0.00 in0.0 mm 0.00 in0.0 mm
04:12 PM 62.6°F17.0°C 53.8°F12.1°C 73% 1.8 mph N2.9 kmh N 7.4 mph11.9 kmh 29.87 in1011.5 mb - 0.00 in0.0 mm 0.00 in0.0 mm
04:17 PM 62.6°F17.0°C 53.8°F12.1°C 73% 3.8 mph N6.1 kmh N 8.1 mph13.0 kmh 29.87 in1011.5 mb - 0.00 in0.0 mm 0.00 in0.0 mm
04:22 PM 62.6°F17.0°C 53.8°F12.1°C 73% 3.4 mph N5.5 kmh N 6.5 mph10.5 kmh 29.87 in1011.5 mb - 0.00 in0.0 mm 0.00 in0.0 mm
04:27 PM 62.6°F17.0°C 53.8°F12.1°C 73% 2.5 mph WNW4.0 kmh WNW 4.9 mph7.9 kmh 29.87 in1011.5 mb - 0.00 in0.0 mm 0.00 in0.0 mm
04:32 PM 62.4°F16.9°C 54.0°F12.2°C 74% 2.2 mph WSW3.5 kmh WSW 4.0 mph6.4 kmh 29.87 in1011.5 mb - 0.00 in0.0 mm 0.00 in0.0 mm
04:37 PM 62.4°F16.9°C 54.0°F12.2°C 74% 3.4 mph WNW5.5 kmh WNW 5.8 mph9.3 kmh 29.87 in1011.5 mb - 0.00 in0.0 mm 0.00 in0.0 mm
04:42 PM 62.4°F16.9°C 54.0°F12.2°C 74% 4.3 mph NW6.9 kmh NW 7.8 mph12.6 kmh 29.87 in1011.5 mb - 0.00 in0.0 mm 0.00 in0.0 mm
04:47 PM 62.4°F16.9°C 54.3°F12.4°C 75% 1.3 mph NNW2.1 kmh NNW 4.0 mph6.4 kmh 29.87 in1011.5 mb - 0.00 in0.0 mm 0.00 in0.0 mm
04:52 PM 62.2°F16.8°C 54.5°F12.5°C 76% 1.6 mph NW2.6 kmh NW 6.5 mph10.5 kmh 29.87 in1011.5 mb - 0.00 in0.0 mm 0.00 in0.0 mm
04:57 PM 62.1°F16.7°C 55.0°F12.8°C 78% 4.3 mph WNW6.9 kmh WNW 8.1 mph13.0 kmh 29.87 in1011.5 mb - 0.00 in0.0 mm 0.00 in0.0 mm
05:02 PM 61.9°F16.6°C 55.0°F12.8°C 78% 3.6 mph W5.8 kmh W 6.7 mph10.8 kmh 29.87 in1011.5 mb - 0.00 in0.0 mm 0.00 in0.0 mm
05:07 PM 61.5°F16.4°C 55.0°F12.8°C 79% 4.0 mph W6.4 kmh W 7.8 mph12.6 kmh 29.87 in1011.5 mb - 0.00 in0.0 mm 0.00 in0.0 mm
05:12 PM 61.2°F16.2°C 54.9°F12.7°C 80% 3.8 mph WNW6.1 kmh WNW 6.5 mph10.5 kmh 29.87 in1011.5 mb - 0.00 in0.0 mm 0.00 in0.0 mm
05:17 PM 61.0°F16.1°C 54.9°F12.7°C 80% 3.8 mph W6.1 kmh W 7.6 mph12.2 kmh 29.87 in1011.5 mb - 0.00 in0.0 mm 0.00 in0.0 mm
05:22 PM 60.6°F15.9°C 54.7°F12.6°C 81% 2.2 mph SW3.5 kmh SW 4.7 mph7.6 kmh 29.87 in1011.5 mb - 0.00 in0.0 mm 0.00 in0.0 mm
05:27 PM 60.1°F15.6°C 54.5°F12.5°C 82% 4.0 mph SW6.4 kmh SW 8.3 mph13.4 kmh 29.87 in1011.5 mb - 0.00 in0.0 mm 0.05 in1.3 mm
05:32 PM 59.9°F15.5°C 54.3°F12.4°C 82% 4.3 mph WSW6.9 kmh WSW 7.6 mph12.2 kmh 29.87 in1011.5 mb - 0.00 in0.0 mm 0.05 in1.3 mm
05:37 PM 59.7°F15.4°C 54.1°F12.3°C 82% 3.4 mph WSW5.5 kmh WSW 5.8 mph9.3 kmh 29.90 in1012.5 mb - 0.00 in0.0 mm 0.05 in1.3 mm
05:42 PM 59.5°F15.3°C 54.3°F12.4°C 83% 2.5 mph SW4.0 kmh SW 4.7 mph7.6 kmh 29.90 in1012.5 mb - 0.00 in0.0 mm 0.05 in1.3 mm
05:47 PM 59.4°F15.2°C 54.1°F12.3°C 83% 2.7 mph W4.3 kmh W 6.3 mph10.1 kmh 29.90 in1012.5 mb - 0.00 in0.0 mm 0.05 in1.3 mm
05:52 PM 59.4°F15.2°C 53.8°F12.1°C 82% 2.2 mph WSW3.5 kmh WSW 4.9 mph7.9 kmh 29.90 in1012.5 mb - 0.00 in0.0 mm 0.05 in1.3 mm
05:57 PM 59.2°F15.1°C 54.0°F12.2°C 83% 0.2 mph WSW0.3 kmh WSW 1.1 mph1.8 kmh 29.90 in1012.5 mb - 0.00 in0.0 mm 0.05 in1.3 mm
06:02 PM 59.0°F15.0°C 53.8°F12.1°C 83% 2.2 mph SW3.5 kmh SW 5.1 mph8.2 kmh 29.90 in1012.5 mb - 0.00 in0.0 mm 0.05 in1.3 mm
06:07 PM 59.0°F15.0°C 53.8°F12.1°C 83% 2.2 mph SW3.5 kmh SW 2.2 mph3.5 kmh 29.90 in1012.5 mb - 0.00 in0.0 mm 0.05 in1.3 mm
06:12 PM 58.8°F14.9°C 53.6°F12.0°C 83% 0.9 mph W1.4 kmh W 3.1 mph5.0 kmh 29.90 in1012.5 mb - 0.00 in0.0 mm 0.05 in1.3 mm
06:17 PM 58.8°F14.9°C 53.6°F12.0°C 83% 0.7 mph W1.1 kmh W 4.0 mph6.4 kmh 29.90 in1012.5 mb - 0.00 in0.0 mm 0.05 in1.3 mm
06:22 PM 58.8°F14.9°C 53.6°F12.0°C 83% 0.2 mph WSW0.3 kmh WSW 2.5 mph4.0 kmh 29.93 in1013.5 mb - 0.00 in0.0 mm 0.05 in1.3 mm
06:27 PM 59.0°F15.0°C 53.8°F12.1°C 83% Calm Calm -- 29.93 in1013.5 mb - 0.00 in0.0 mm 0.05 in1.3 mm
06:32 PM 59.0°F15.0°C 53.8°F12.1°C 83% Calm Calm -- 29.93 in1013.5 mb - 0.00 in0.0 mm 0.05 in1.3 mm
06:37 PM 59.0°F15.0°C 53.8°F12.1°C 83% Calm Calm -- 29.93 in1013.5 mb - 0.00 in0.0 mm 0.05 in1.3 mm
06:42 PM 59.0°F15.0°C 54.1°F12.3°C 84% Calm Calm -- 29.93 in1013.5 mb - 0.00 in0.0 mm 0.05 in1.3 mm
06:47 PM 59.0°F15.0°C 54.1°F12.3°C 84% Calm Calm -- 29.93 in1013.5 mb - 0.00 in0.0 mm 0.05 in1.3 mm
06:52 PM 59.2°F15.1°C 54.3°F12.4°C 84% Calm Calm 1.3 mph2.1 kmh 29.93 in1013.5 mb - 0.00 in0.0 mm 0.05 in1.3 mm
06:57 PM 59.2°F15.1°C 54.3°F12.4°C 84% 1.8 mph SSW2.9 kmh SSW 3.6 mph5.8 kmh 29.93 in1013.5 mb - 0.00 in0.0 mm 0.05 in1.3 mm
07:02 PM 59.2°F15.1°C 54.3°F12.4°C 84% 1.8 mph SW2.9 kmh SW 1.8 mph2.9 kmh 29.93 in1013.5 mb - 0.00 in0.0 mm 0.05 in1.3 mm
07:07 PM 59.0°F15.0°C 54.1°F12.3°C 84% 1.1 mph SSW1.8 kmh SSW 4.0 mph6.4 kmh 29.93 in1013.5 mb - 0.00 in0.0 mm 0.05 in1.3 mm
07:12 PM 59.0°F15.0°C 54.1°F12.3°C 84% Calm Calm -- 29.93 in1013.5 mb - 0.00 in0.0 mm 0.05 in1.3 mm
07:17 PM 59.0°F15.0°C 54.1°F12.3°C 84% 0.7 mph S1.1 kmh S 2.0 mph3.2 kmh 29.93 in1013.5 mb - 0.00 in0.0 mm 0.05 in1.3 mm
07:22 PM 59.0°F15.0°C 54.5°F12.5°C 85% Calm Calm -- 29.93 in1013.5 mb - 0.00 in0.0 mm 0.05 in1.3 mm
07:27 PM 59.0°F15.0°C 54.5°F12.5°C 85% Calm Calm -- 29.93 in1013.5 mb - 0.00 in0.0 mm 0.05 in1.3 mm
07:32 PM 59.0°F15.0°C 54.5°F12.5°C 85% Calm Calm -- 29.93 in1013.5 mb - 0.00 in0.0 mm 0.05 in1.3 mm
07:37 PM 59.0°F15.0°C 54.9°F12.7°C 86% 1.3 mph SW2.1 kmh SW 2.7 mph4.3 kmh 29.93 in1013.5 mb - 0.00 in0.0 mm 0.05 in1.3 mm
07:42 PM 58.8°F14.9°C 54.7°F12.6°C 86% 1.3 mph WSW2.1 kmh WSW 1.3 mph2.1 kmh 29.93 in1013.5 mb - 0.00 in0.0 mm 0.05 in1.3 mm
07:47 PM 58.8°F14.9°C 54.7°F12.6°C 86% 1.8 mph SW2.9 kmh SW 3.1 mph5.0 kmh 29.93 in1013.5 mb - 0.00 in0.0 mm 0.05 in1.3 mm
07:52 PM 58.8°F14.9°C 55.0°F12.8°C 87% 0.2 mph WSW0.3 kmh WSW 1.8 mph2.9 kmh 29.93 in1013.5 mb - 0.00 in0.0 mm 0.05 in1.3 mm
07:57 PM 58.8°F14.9°C 55.0°F12.8°C 87% Calm Calm -- 29.93 in1013.5 mb - 0.00 in0.0 mm 0.05 in1.3 mm
08:02 PM 58.8°F14.9°C 54.7°F12.6°C 86% Calm Calm -- 29.93 in1013.5 mb - 0.00 in0.0 mm 0.05 in1.3 mm
08:07 PM 58.8°F14.9°C 55.0°F12.8°C 87% Calm Calm -- 29.93 in1013.5 mb - 0.00 in0.0 mm 0.05 in1.3 mm
08:12 PM 58.8°F14.9°C 55.0°F12.8°C 87% Calm Calm -- 29.93 in1013.5 mb - 0.00 in0.0 mm 0.05 in1.3 mm
08:17 PM 59.0°F15.0°C 55.2°F12.9°C 87% Calm Calm -- 29.93 in1013.5 mb - 0.00 in0.0 mm 0.05 in1.3 mm
08:22 PM 59.0°F15.0°C 55.2°F12.9°C 87% Calm Calm -- 29.93 in1013.5 mb - 0.00 in0.0 mm 0.05 in1.3 mm
08:27 PM 58.8°F14.9°C 55.0°F12.8°C 87% Calm Calm -- 29.93 in1013.5 mb - 0.00 in0.0 mm 0.05 in1.3 mm
08:32 PM 58.8°F14.9°C 55.0°F12.8°C 87% Calm Calm -- 29.93 in1013.5 mb - 0.00 in0.0 mm 0.05 in1.3 mm
08:37 PM 58.8°F14.9°C 55.0°F12.8°C 87% Calm Calm -- 29.93 in1013.5 mb - 0.00 in0.0 mm 0.05 in1.3 mm
08:42 PM 58.8°F14.9°C 55.0°F12.8°C 87% Calm Calm -- 29.93 in1013.5 mb - 0.00 in0.0 mm 0.05 in1.3 mm
08:47 PM 58.6°F14.8°C 54.9°F12.7°C 87% Calm Calm -- 29.93 in1013.5 mb - 0.00 in0.0 mm 0.05 in1.3 mm
08:52 PM 58.6°F14.8°C 54.9°F12.7°C 87% Calm Calm -- 29.93 in1013.5 mb - 0.00 in0.0 mm 0.05 in1.3 mm
08:57 PM 58.6°F14.8°C 54.9°F12.7°C 87% Calm Calm -- 29.93 in1013.5 mb - 0.00 in0.0 mm 0.05 in1.3 mm
09:02 PM 58.5°F14.7°C 54.7°F12.6°C 87% Calm Calm -- 29.93 in1013.5 mb - 0.00 in0.0 mm 0.05 in1.3 mm
09:07 PM 58.5°F14.7°C 54.7°F12.6°C 87% Calm Calm -- 29.93 in1013.5 mb - 0.00 in0.0 mm 0.05 in1.3 mm
09:12 PM 58.5°F14.7°C 54.7°F12.6°C 87% Calm Calm -- 29.93 in1013.5 mb - 0.00 in0.0 mm 0.05 in1.3 mm
09:17 PM 58.3°F14.6°C 54.5°F12.5°C 87% Calm Calm -- 29.93 in1013.5 mb - 0.00 in0.0 mm 0.05 in1.3 mm
09:22 PM 58.3°F14.6°C 54.5°F12.5°C 87% Calm Calm -- 29.96 in1014.6 mb - 0.00 in0.0 mm 0.05 in1.3 mm
09:27 PM 58.3°F14.6°C 54.5°F12.5°C 87% Calm Calm -- 29.96 in1014.6 mb - 0.00 in0.0 mm 0.05 in1.3 mm
09:32 PM 58.1°F14.5°C 54.3°F12.4°C 87% Calm Calm -- 29.96 in1014.6 mb - 0.00 in0.0 mm 0.05 in1.3 mm
09:37 PM 58.1°F14.5°C 54.3°F12.4°C 87% Calm Calm -- 29.96 in1014.6 mb - 0.00 in0.0 mm 0.05 in1.3 mm
09:42 PM 57.9°F14.4°C 54.1°F12.3°C 87% Calm Calm -- 29.96 in1014.6 mb - 0.00 in0.0 mm 0.05 in1.3 mm
09:47 PM 57.9°F14.4°C 54.1°F12.3°C 87% Calm Calm -- 29.96 in1014.6 mb - 0.00 in0.0 mm 0.05 in1.3 mm
09:52 PM 57.7°F14.3°C 54.1°F12.3°C 88% Calm Calm -- 29.93 in1013.5 mb - 0.00 in0.0 mm 0.05 in1.3 mm
09:57 PM 57.7°F14.3°C 54.1°F12.3°C 88% Calm Calm -- 29.93 in1013.5 mb - 0.00 in0.0 mm 0.05 in1.3 mm
10:02 PM 57.6°F14.2°C 54.0°F12.2°C 88% Calm Calm -- 29.93 in1013.5 mb - 0.00 in0.0 mm 0.05 in1.3 mm
10:07 PM 57.4°F14.1°C 53.8°F12.1°C 88% Calm Calm -- 29.93 in1013.5 mb - 0.00 in0.0 mm 0.05 in1.3 mm
10:12 PM 57.4°F14.1°C 53.8°F12.1°C 88% Calm Calm -- 29.93 in1013.5 mb - 0.00 in0.0 mm 0.05 in1.3 mm
10:17 PM 57.2°F14.0°C 53.6°F12.0°C 88% Calm Calm -- 29.93 in1013.5 mb - 0.00 in0.0 mm 0.05 in1.3 mm
10:22 PM 57.2°F14.0°C 53.6°F12.0°C 88% Calm Calm -- 29.96 in1014.6 mb - 0.00 in0.0 mm 0.05 in1.3 mm
10:27 PM 57.2°F14.0°C 53.6°F12.0°C 88% Calm Calm -- 29.96 in1014.6 mb - 0.00 in0.0 mm 0.05 in1.3 mm
10:32 PM 57.2°F14.0°C 53.6°F12.0°C 88% Calm Calm -- 29.96 in1014.6 mb - 0.00 in0.0 mm 0.05 in1.3 mm
10:37 PM 57.2°F14.0°C 53.6°F12.0°C 88% Calm Calm -- 29.96 in1014.6 mb - 0.00 in0.0 mm 0.05 in1.3 mm
10:42 PM 57.0°F13.9°C 53.4°F11.9°C 88% Calm Calm -- 29.96 in1014.6 mb - 0.00 in0.0 mm 0.05 in1.3 mm
10:47 PM 57.0°F13.9°C 53.4°F11.9°C 88% Calm Calm -- 29.96 in1014.6 mb - 0.00 in0.0 mm 0.05 in1.3 mm
10:52 PM 57.0°F13.9°C 53.4°F11.9°C 88% Calm Calm -- 29.96 in1014.6 mb - 0.00 in0.0 mm 0.05 in1.3 mm
10:57 PM 57.0°F13.9°C 53.8°F12.1°C 89% Calm Calm -- 29.96 in1014.6 mb - 0.00 in0.0 mm 0.05 in1.3 mm
11:02 PM 57.0°F13.9°C 53.8°F12.1°C 89% Calm Calm -- 29.96 in1014.6 mb - 0.00 in0.0 mm 0.05 in1.3 mm
11:07 PM 57.0°F13.9°C 53.8°F12.1°C 89% Calm Calm -- 29.96 in1014.6 mb - 0.00 in0.0 mm 0.00 in0.0 mm
11:12 PM 57.2°F14.0°C 54.0°F12.2°C 89% Calm Calm -- 29.96 in1014.6 mb - 0.00 in0.0 mm 0.00 in0.0 mm
11:17 PM 57.2°F14.0°C 54.0°F12.2°C 89% Calm Calm -- 29.96 in1014.6 mb - 0.00 in0.0 mm 0.00 in0.0 mm
11:22 PM 57.2°F14.0°C 54.0°F12.2°C 89% Calm Calm -- 29.96 in1014.6 mb - 0.00 in0.0 mm 0.00 in0.0 mm
11:27 PM 57.2°F14.0°C 54.0°F12.2°C 89% Calm Calm -- 29.96 in1014.6 mb - 0.00 in0.0 mm 0.00 in0.0 mm
11:32 PM 57.2°F14.0°C 54.0°F12.2°C 89% Calm Calm -- 29.96 in1014.6 mb - 0.00 in0.0 mm 0.00 in0.0 mm
11:37 PM 57.2°F14.0°C 54.0°F12.2°C 89% Calm Calm -- 29.96 in1014.6 mb - 0.00 in0.0 mm 0.00 in0.0 mm
11:42 PM 57.2°F14.0°C 54.0°F12.2°C 89% Calm Calm -- 29.96 in1014.6 mb - 0.00 in0.0 mm 0.00 in0.0 mm
11:47 PM 57.4°F14.1°C 54.1°F12.3°C 89% Calm Calm -- 29.96 in1014.6 mb - 0.00 in0.0 mm 0.00 in0.0 mm
11:52 PM 57.4°F14.1°C 54.5°F12.5°C 90% Calm Calm -- 29.99 in1015.6 mb - 0.00 in0.0 mm 0.00 in0.0 mm
11:57 PM 57.4°F14.1°C 54.5°F12.5°C 90% Calm Calm -- 29.99 in1015.6 mb - 0.00 in0.0 mm 0.00 in0.0 mm